Stoughton, WI (53589)

7:35 PM CST on February 09, 2016 (GMT -0600)
Dane Co. LaFollette Dam | | Change Station
CLOSE
Current Station
Personal Weather Station
Location: Stoughton, WI
Elevation: 850 ft
Nearby Weather Stations

Elev 850 ft 42.97 °N, 89.22 °W | Updated 13 minutes ago

Overcast
Overcast
14.6 °F
Feels Like 15 °F
N
3.0
Wind Variable Wind from WNW
Gusts 16.0 mph

Today
High -- | Low -- °F
--% Chance of Precip.
Yesterday
High -- | Low -- °F
Precip. -- in
Pressure 30.02 in
Visibility 10.0 miles
Clouds Overcast 3900 ft
Windchill 15 °F
Dew Point 5 °F
Humidity 66%
Rainfall 0.00 in
Snow Depth Not available.
7:02 AM 5:19 PM
Waxing Crescent, 3% visible
METAR KMSN 100053Z 31012G19KT 10SM OVC039 M10/M17 A2996 RMK AO2 SLP165 T11001167
Pressure 30.02 in
Visibility 10.0 miles
Clouds Overcast 3900 ft
Windchill 15 °F
Dew Point 5 °F
Humidity 66%
Rainfall 0.00 in
Snow Depth Not available.
7:02 AM 5:19 PM
Waxing Crescent, 3% visible
METAR KMSN 100053Z 31012G19KT 10SM OVC039 M10/M17 A2996 RMK AO2 SLP165 T11001167

10-Day Weather Forecast

Almanac

Astronomy

Feb. 09, 2016 Rise Set
Actual Time
Civil Twilight
Nautical Twilight
Astronomical Twilight
Moon
Length of Visible Light
Length of Day
Tomorrow will be .
, % of the Moon is Illuminated

Today's Extremes

State Highs State Lows

Community

WunderPhotos

Upload Photos

1,891,760 photos uploaded!

WunderBlog® & News

Nearby

Air Quality

  Air Quality AQ Index Pollutant
Not available.

Snow Depth

Station Depth Elevation

Earthquake Activity

City Distance Mag. Time & Date
Minimum magnitude displayed is 2.5.

Coastal Water Temperatures

Place Temperature

Stations

Nearby Weather Stations

Station Location Temp. Windchill Dew Point Humidity Wind Precip. Elev Updated Type
                   

Watches & Warnings

There are currently no watches in effect.